Airfield :
LOGIN :

Register | Disclaimer

   EN    FR    IT 

 










Legend :    VFR   Marginal VFR   IFR   Intensive IFR   Very Intensive IFR
Visi :
Ceiling :
>= 8 km
>= 3000ft
5 to 8 km
1000 to 3000 ft
1500m to 5 km
500 to 1000 ft
800 to 1500m
200 to 500 ft
< 800m
< 200 ft
Symbols :   Thunderstorms  Fog  Heavy snow  Heavy precipitations  Wind > 20 kt
SIGMETs :     Misc.  Thunderstorms  Icing  Turbulence  Mountain Waves  Volcanic Ashes






- Airport Elevation : 1187 ft


LIBV - Gioia del Colle Bari

CURRENT METAR :
  • 202255Z 31011KT 9999 FEW040 06/M00 Q1021 RMK FEW VIS MIN 9999 WIND THR32 32012KT WIND THR14 32009KT BLU

EXPIRED METARs :
  • 202155Z 31012KT 9999 FEW040 06/M01 Q1021 RMK FEW VIS MIN 9999 WIND THR32 32014KT WIND THR14 31010KT BLU
  • 202055Z 31013KT 9999 FEW040 06/M00 Q1021 RMK FEW VIS MIN 9999 WIND THR32 32013KT WIND THR14 31011KT BLU

TAF TAF LIBV
Valid from the 21 at 00:00 until the 21 at 09:00 UTC


202300Z 2100/2109 32014KT 9999 FEW040



MET'MAP, your aeronautical weather chart ! - Copyright ORBIFLY December 2007 - Disclaimer

ORBIFLY MET'MAP TEAM :

Programming & Development : Alexandra Zaïnal
Concept & original design : Baudouin d'Aumeries
Assistance for programming : Marc-Olivier Méhu
Technical & hardware support : Manuel Goepfert

Contact : metmap@orbifly.com




SOURCES & CREDITS :

   NOAA